Flight Track Log - Related Links

Times and Time Zones

All times are in EDT time to prevent confusion due to time zone crossing. See the EJA604 flight status page for this flight to view local times or setup timezone preferences in your user account.

Time Position Orientation Groundspeed Altitude Reporting Facility
EDT Latitude Longitude Course Direction KTS MPH feet Rate Location/Type
Fri 03:21:25 PM 40.8333 -74.1167 246° West 178 205 1,600  Level New York TRACON
Fri 03:22:19 PM 40.8167 -74.1667 246° West 191 220 2,000 1,737 Climbing New York TRACON
Fri 03:23:19 PM 40.8167 -74.2500 270° West 206 237 4,900 2,900 Climbing New York TRACON
Fri 03:24:19 PM 40.8167 -74.3167 270° West 226 260 7,800 2,550 Climbing New York TRACON
Fri 03:25:19 PM 40.8000 -74.4167 258° West 246 283 10,000 2,173 Climbing New York TRACON
Fri 03:27:35 PM 40.7614 -74.6231 256° West 275 316 14,900 2,031 Climbing New York Center
Fri 03:28:34 PM 40.7458 -74.7100 257° West 275 316 16,600 1,100 Climbing New York Center
Fri 03:29:35 PM 40.7275 -74.8211 258° West 283 326 17,100 198 Climbing New York Center
Fri 03:30:35 PM 40.7069 -74.9347 257° West 304 350 17,000 -50 Descending New York Center
Fri 03:31:36 PM 40.6908 -75.0325 258° West 309 356 17,000 303 Level New York Center
Fri 03:32:34 PM 40.6786 -75.1411 262° West 309 356 17,600 908 Climbing New York Center
Fri 03:33:35 PM 40.6642 -75.2469 260° West 309 356 18,800 694 Climbing New York Center
Fri 03:34:35 PM 40.6189 -75.3422 238° Southwest 302 348 19,000 99 Climbing New York Center
Fri 03:35:36 PM 40.5672 -75.4400 235° Southwest 321 369 19,000  Level New York Center
Fri 03:36:36 PM 40.5194 -75.5378 237° Southwest 326 375 19,000  Level New York Center
Fri 03:37:34 PM 40.4700 -75.6297 235° Southwest 326 375 19,000  Level New York Center
Fri 03:38:35 PM 40.4156 -75.7350 236° Southwest 315 362 19,000  Level New York Center
Fri 03:39:36 PM 40.3658 -75.8269 235° Southwest 315 362 19,000  Level New York Center
Fri 03:40:34 PM 40.3225 -75.9136 237° Southwest 315 362 19,000  Level New York Center
Fri 03:41:35 PM 40.2656 -76.0208 235° Southwest 315 362 19,000  Level New York Center
Fri 03:42:36 PM 40.2203 -76.1044 235° Southwest 315 362 19,000  Level New York Center
Fri 03:43:34 PM 40.1700 -76.1956 234° Southwest 315 362 19,000  Level New York Center
Fri 03:44:36 PM 40.1150 -76.3028 236° Southwest 315 362 19,000  Level New York Center
Fri 03:45:35 PM 40.0686 -76.4019 239° Southwest 321 369 19,000 -115 Level New York Center
Fri 03:48:05 PM 39.9500 -76.6500 238° Southwest 338 389 18,600 -528 Descending Potomac TRACON
Fri 03:49:11 PM 39.9000 -76.7667 241° Southwest 290 334 17,100 -1,429 Descending Potomac TRACON
Fri 03:50:11 PM 39.8667 -76.8333 237° Southwest 255 293 15,600 -1,488 Descending Potomac TRACON
Fri 03:51:12 PM 39.8333 -76.9167 243° Southwest 259 298 14,100 -1,461 Descending Potomac TRACON
Fri 03:52:06 PM 39.8000 -76.9833 237° Southwest 257 296 12,800 -1,316 Descending Potomac TRACON
Fri 03:53:06 PM 39.7667 -77.0667 243° Southwest 252 290 11,600 -1,250 Descending Potomac TRACON
Fri 03:54:06 PM 39.7167 -77.1333 226° Southwest 240 276 10,300 -1,400 Descending Potomac TRACON
Fri 03:55:06 PM 39.6833 -77.2167 243° Southwest 240 276 8,800 -1,488 Descending Potomac TRACON
Fri 03:56:07 PM 39.6500 -77.2833 237° Southwest 241 277 7,300 -857 Descending Potomac TRACON
Fri 03:57:12 PM 39.6167 -77.3500 237° Southwest 214 246 7,000 -150 Descending Potomac TRACON
Fri 03:58:07 PM 39.5833 -77.4000 229° Southwest 205 236 7,000 -496 Level Potomac TRACON
Fri 03:59:13 PM 39.5333 -77.4667 226° Southwest 209 241 6,000 -900 Descending Potomac TRACON
Fri 04:00:07 PM 39.5167 -77.5167 247° West 189 217 5,200 -950 Descending Potomac TRACON
Fri 04:01:13 PM 39.4833 -77.5833 237° Southwest 170 196 4,100 -600 Descending Potomac TRACON
Fri 04:02:07 PM 39.4500 -77.6167 218° Southwest 174 200 4,000 -53 Descending Potomac TRACON
Fri 04:03:07 PM 39.4167 -77.6500 218° Southwest 168 193 4,000  Level Potomac TRACON
Fri 04:04:07 PM 39.3667 -77.6667 194° South 165 190 4,000  Level Potomac TRACON
Fri 04:05:13 PM 39.3167 -77.6833 194° South 169 194 4,000  Level Potomac TRACON
Fri 04:06:13 PM 39.2833 -77.7000 201° Southwest 169 194 4,000  Level Potomac TRACON
Fri 04:07:13 PM 39.2333 -77.7167 194° South 173 199 4,000  Level Potomac TRACON
Fri 04:08:13 PM 39.1833 -77.7333 194° South 166 191 4,000  Level Potomac TRACON
Fri 04:09:13 PM 39.1500 -77.7667 218° Southwest 168 193 4,000  Level Potomac TRACON
Fri 04:10:13 PM 39.1000 -77.7833 195° South 174 200 4,000  Level Potomac TRACON
Fri 04:11:13 PM 39.0500 -77.7833 180° South 177 204 4,000  Level Potomac TRACON
Fri 04:12:14 PM 39.0000 -77.7667 165° South 174 200 4,000 -496 Level Potomac TRACON
Fri 04:13:14 PM 38.9500 -77.7667 180° South 174 200 3,000 -700 Descending Potomac TRACON
Fri 04:14:14 PM 38.9167 -77.7333 142° Southeast 190 219 2,600 -200 Descending Potomac TRACON
Fri 04:15:14 PM 38.9000 -77.6667 108° East 194 223 2,600  Level Potomac TRACON
Fri 04:16:14 PM 38.8833 -77.6167 113° Southeast 193 222 2,600  Level Potomac TRACON
Fri 04:17:08 PM 38.8333 -77.5833 153° Southeast 173 199 2,600 -474 Level Potomac TRACON
Fri 04:18:08 PM 38.8000 -77.5667 159° South 164 189 1,700 -900 Descending Potomac TRACON

Login

Don't have an account? Register now (free) for customized features, flight alerts, and more!